sensor_id;sensor_type;location;lat;lon;timestamp;temperature;humidity
3360;DHT22;1693;49.602;11.046;2022-07-06T00:00:58;16.60;99.90
3360;DHT22;1693;49.602;11.046;2022-07-06T00:03:27;16.50;99.90
3360;DHT22;1693;49.602;11.046;2022-07-06T00:05:54;16.50;99.90
3360;DHT22;1693;49.602;11.046;2022-07-06T00:08:21;16.40;99.90
3360;DHT22;1693;49.602;11.046;2022-07-06T00:10:48;16.30;99.90
3360;DHT22;1693;49.602;11.046;2022-07-06T00:13:15;16.30;99.90
3360;DHT22;1693;49.602;11.046;2022-07-06T00:15:42;16.20;99.90
3360;DHT22;1693;49.602;11.046;2022-07-06T00:18:09;16.10;99.90
3360;DHT22;1693;49.602;11.046;2022-07-06T00:20:38;16.10;99.90
3360;DHT22;1693;49.602;11.046;2022-07-06T00:23:05;16.10;99.90
3360;DHT22;1693;49.602;11.046;2022-07-06T00:25:32;16.00;99.90
3360;DHT22;1693;49.602;11.046;2022-07-06T00:27:59;16.10;99.90
3360;DHT22;1693;49.602;11.046;2022-07-06T00:30:26;16.10;99.90
3360;DHT22;1693;49.602;11.046;2022-07-06T00:32:53;16.20;99.90
3360;DHT22;1693;49.602;11.046;2022-07-06T00:35:20;16.30;99.90
3360;DHT22;1693;49.602;11.046;2022-07-06T00:37:49;16.30;99.90
3360;DHT22;1693;49.602;11.046;2022-07-06T00:40:16;16.30;99.90
3360;DHT22;1693;49.602;11.046;2022-07-06T00:42:45;16.30;99.90
3360;DHT22;1693;49.602;11.046;2022-07-06T00:45:14;16.30;99.90
3360;DHT22;1693;49.602;11.046;2022-07-06T00:47:42;16.20;99.90
3360;DHT22;1693;49.602;11.046;2022-07-06T00:50:10;16.20;99.90
3360;DHT22;1693;49.602;11.046;2022-07-06T00:52:40;16.10;99.90
3360;DHT22;1693;49.602;11.046;2022-07-06T00:55:09;16.00;99.90
3360;DHT22;1693;49.602;11.046;2022-07-06T00:57:37;16.00;99.90
3360;DHT22;1693;49.602;11.046;2022-07-06T01:00:06;16.00;99.90
3360;DHT22;1693;49.602;11.046;2022-07-06T01:02:34;16.10;99.90
3360;DHT22;1693;49.602;11.046;2022-07-06T01:05:03;16.20;99.90
3360;DHT22;1693;49.602;11.046;2022-07-06T01:07:30;16.10;99.90
3360;DHT22;1693;49.602;11.046;2022-07-06T01:09:58;16.20;99.90
3360;DHT22;1693;49.602;11.046;2022-07-06T01:12:26;16.30;99.90
3360;DHT22;1693;49.602;11.046;2022-07-06T01:14:53;16.30;99.90
3360;DHT22;1693;49.602;11.046;2022-07-06T01:17:21;16.30;99.90
3360;DHT22;1693;49.602;11.046;2022-07-06T01:19:48;16.30;99.90
3360;DHT22;1693;49.602;11.046;2022-07-06T01:22:16;16.20;99.90
3360;DHT22;1693;49.602;11.046;2022-07-06T01:24:44;16.20;99.90
3360;DHT22;1693;49.602;11.046;2022-07-06T01:27:11;16.10;99.90
3360;DHT22;1693;49.602;11.046;2022-07-06T01:29:38;16.10;99.90
3360;DHT22;1693;49.602;11.046;2022-07-06T01:32:06;16.10;99.90
3360;DHT22;1693;49.602;11.046;2022-07-06T01:34:33;16.20;99.90
3360;DHT22;1693;49.602;11.046;2022-07-06T01:37:01;16.20;99.90
3360;DHT22;1693;49.602;11.046;2022-07-06T01:39:29;16.20;99.90
3360;DHT22;1693;49.602;11.046;2022-07-06T01:41:56;16.20;99.90
3360;DHT22;1693;49.602;11.046;2022-07-06T01:44:23;16.20;99.90
3360;DHT22;1693;49.602;11.046;2022-07-06T01:46:50;16.30;99.90
3360;DHT22;1693;49.602;11.046;2022-07-06T01:49:17;16.20;99.90
3360;DHT22;1693;49.602;11.046;2022-07-06T01:51:44;16.00;99.90
3360;DHT22;1693;49.602;11.046;2022-07-06T01:54:12;16.00;99.90
3360;DHT22;1693;49.602;11.046;2022-07-06T01:56:40;16.00;99.90
3360;DHT22;1693;49.602;11.046;2022-07-06T01:59:07;16.10;99.90
3360;DHT22;1693;49.602;11.046;2022-07-06T02:01:35;16.10;99.90
3360;DHT22;1693;49.602;11.046;2022-07-06T02:04:03;16.00;99.90
3360;DHT22;1693;49.602;11.046;2022-07-06T02:06:30;15.80;99.90
3360;DHT22;1693;49.602;11.046;2022-07-06T02:08:57;15.60;99.90
3360;DHT22;1693;49.602;11.046;2022-07-06T02:11:24;15.50;99.90
3360;DHT22;1693;49.602;11.046;2022-07-06T02:13:54;15.40;99.90
3360;DHT22;1693;49.602;11.046;2022-07-06T02:16:21;15.30;99.90
3360;DHT22;1693;49.602;11.046;2022-07-06T02:18:48;15.30;99.90
3360;DHT22;1693;49.602;11.046;2022-07-06T02:21:15;15.30;99.90
3360;DHT22;1693;49.602;11.046;2022-07-06T02:23:42;15.30;99.90
3360;DHT22;1693;49.602;11.046;2022-07-06T02:26:10;15.30;99.90
3360;DHT22;1693;49.602;11.046;2022-07-06T02:28:36;15.30;99.90
3360;DHT22;1693;49.602;11.046;2022-07-06T02:31:05;15.20;99.90
3360;DHT22;1693;49.602;11.046;2022-07-06T02:33:32;15.20;99.90
3360;DHT22;1693;49.602;11.046;2022-07-06T02:35:59;15.10;99.90
3360;DHT22;1693;49.602;11.046;2022-07-06T02:38:26;15.00;99.90
3360;DHT22;1693;49.602;11.046;2022-07-06T02:40:53;15.00;99.90
3360;DHT22;1693;49.602;11.046;2022-07-06T02:43:20;14.90;99.90
3360;DHT22;1693;49.602;11.046;2022-07-06T02:45:47;14.80;99.90
3360;DHT22;1693;49.602;11.046;2022-07-06T02:48:15;14.70;99.90
3360;DHT22;1693;49.602;11.046;2022-07-06T02:50:43;14.70;99.90
3360;DHT22;1693;49.602;11.046;2022-07-06T02:53:10;14.60;99.90
3360;DHT22;1693;49.602;11.046;2022-07-06T02:55:37;14.60;99.90
3360;DHT22;1693;49.602;11.046;2022-07-06T02:58:04;14.40;99.90
3360;DHT22;1693;49.602;11.046;2022-07-06T03:00:31;14.40;99.90
3360;DHT22;1693;49.602;11.046;2022-07-06T03:02:58;14.40;99.90
3360;DHT22;1693;49.602;11.046;2022-07-06T03:05:26;14.40;99.90
3360;DHT22;1693;49.602;11.046;2022-07-06T03:07:53;14.40;99.90
3360;DHT22;1693;49.602;11.046;2022-07-06T03:10:20;14.40;99.90
3360;DHT22;1693;49.602;11.046;2022-07-06T03:12:48;14.50;99.90
3360;DHT22;1693;49.602;11.046;2022-07-06T03:15:15;14.60;99.90
3360;DHT22;1693;49.602;11.046;2022-07-06T03:17:42;14.70;99.90
3360;DHT22;1693;49.602;11.046;2022-07-06T03:20:09;14.80;99.90
3360;DHT22;1693;49.602;11.046;2022-07-06T03:22:38;14.70;99.90
3360;DHT22;1693;49.602;11.046;2022-07-06T03:25:05;14.70;99.90
3360;DHT22;1693;49.602;11.046;2022-07-06T03:27:32;14.70;99.90
3360;DHT22;1693;49.602;11.046;2022-07-06T03:29:59;14.70;99.90
3360;DHT22;1693;49.602;11.046;2022-07-06T03:32:26;14.70;99.90
3360;DHT22;1693;49.602;11.046;2022-07-06T03:34:53;14.80;99.90
3360;DHT22;1693;49.602;11.046;2022-07-06T03:37:20;14.90;99.90
3360;DHT22;1693;49.602;11.046;2022-07-06T03:39:49;15.00;99.90
3360;DHT22;1693;49.602;11.046;2022-07-06T03:42:16;15.10;99.90
3360;DHT22;1693;49.602;11.046;2022-07-06T03:44:43;15.10;99.90
3360;DHT22;1693;49.602;11.046;2022-07-06T03:47:10;15.10;99.90
3360;DHT22;1693;49.602;11.046;2022-07-06T03:49:37;15.10;99.90
3360;DHT22;1693;49.602;11.046;2022-07-06T03:52:05;15.10;99.90
3360;DHT22;1693;49.602;11.046;2022-07-06T03:54:34;15.00;99.90
3360;DHT22;1693;49.602;11.046;2022-07-06T03:57:04;15.00;99.90
3360;DHT22;1693;49.602;11.046;2022-07-06T03:59:31;15.00;99.90
3360;DHT22;1693;49.602;11.046;2022-07-06T04:01:58;15.00;99.90
3360;DHT22;1693;49.602;11.046;2022-07-06T04:04:25;15.10;99.90
3360;DHT22;1693;49.602;11.046;2022-07-06T04:06:52;15.10;99.90
3360;DHT22;1693;49.602;11.046;2022-07-06T04:09:19;15.20;99.90
3360;DHT22;1693;49.602;11.046;2022-07-06T04:11:46;15.20;99.90
3360;DHT22;1693;49.602;11.046;2022-07-06T04:14:14;15.30;99.90
3360;DHT22;1693;49.602;11.046;2022-07-06T04:16:41;15.40;99.90
3360;DHT22;1693;49.602;11.046;2022-07-06T04:19:08;15.20;99.90
3360;DHT22;1693;49.602;11.046;2022-07-06T04:21:35;15.20;99.90
3360;DHT22;1693;49.602;11.046;2022-07-06T04:24:03;15.00;99.90
3360;DHT22;1693;49.602;11.046;2022-07-06T04:26:30;15.00;99.90
3360;DHT22;1693;49.602;11.046;2022-07-06T04:28:57;15.20;99.90
3360;DHT22;1693;49.602;11.046;2022-07-06T04:31:25;15.20;99.90
3360;DHT22;1693;49.602;11.046;2022-07-06T04:33:53;15.20;99.90
3360;DHT22;1693;49.602;11.046;2022-07-06T04:36:20;15.30;99.90
3360;DHT22;1693;49.602;11.046;2022-07-06T04:38:47;15.50;99.90
3360;DHT22;1693;49.602;11.046;2022-07-06T04:41:14;15.60;99.90
3360;DHT22;1693;49.602;11.046;2022-07-06T04:43:41;15.60;99.90
3360;DHT22;1693;49.602;11.046;2022-07-06T04:46:09;15.80;99.90
3360;DHT22;1693;49.602;11.046;2022-07-06T04:48:38;15.90;99.90
3360;DHT22;1693;49.602;11.046;2022-07-06T04:51:05;16.00;99.90
3360;DHT22;1693;49.602;11.046;2022-07-06T04:53:32;16.20;99.90
3360;DHT22;1693;49.602;11.046;2022-07-06T04:55:59;16.10;99.90
3360;DHT22;1693;49.602;11.046;2022-07-06T04:58:26;16.20;99.90
3360;DHT22;1693;49.602;11.046;2022-07-06T05:00:53;16.30;99.90
3360;DHT22;1693;49.602;11.046;2022-07-06T05:03:20;16.50;99.90
3360;DHT22;1693;49.602;11.046;2022-07-06T05:05:49;16.50;99.90
3360;DHT22;1693;49.602;11.046;2022-07-06T05:08:17;16.60;99.90
3360;DHT22;1693;49.602;11.046;2022-07-06T05:10:44;16.70;99.90
3360;DHT22;1693;49.602;11.046;2022-07-06T05:13:11;17.00;99.90
3360;DHT22;1693;49.602;11.046;2022-07-06T05:15:38;17.00;99.90
3360;DHT22;1693;49.602;11.046;2022-07-06T05:18:06;17.00;99.90
3360;DHT22;1693;49.602;11.046;2022-07-06T05:20:33;17.20;99.90
3360;DHT22;1693;49.602;11.046;2022-07-06T05:23:01;17.50;99.90
3360;DHT22;1693;49.602;11.046;2022-07-06T05:25:28;17.80;99.90
3360;DHT22;1693;49.602;11.046;2022-07-06T05:27:57;18.10;99.90
3360;DHT22;1693;49.602;11.046;2022-07-06T05:30:24;18.10;99.90
3360;DHT22;1693;49.602;11.046;2022-07-06T05:32:51;18.30;99.90
3360;DHT22;1693;49.602;11.046;2022-07-06T05:35:18;18.50;99.90
3360;DHT22;1693;49.602;11.046;2022-07-06T05:37:45;18.40;99.90
3360;DHT22;1693;49.602;11.046;2022-07-06T05:40:13;18.50;99.90
3360;DHT22;1693;49.602;11.046;2022-07-06T05:42:40;18.80;99.90
3360;DHT22;1693;49.602;11.046;2022-07-06T05:45:08;18.90;99.90
3360;DHT22;1693;49.602;11.046;2022-07-06T05:47:35;18.70;99.90
3360;DHT22;1693;49.602;11.046;2022-07-06T05:50:20;18.60;99.90
3360;DHT22;1693;49.602;11.046;2022-07-06T05:52:58;18.50;99.90
3360;DHT22;1693;49.602;11.046;2022-07-06T05:55:28;18.40;99.90
3360;DHT22;1693;49.602;11.046;2022-07-06T05:57:55;18.40;99.90
3360;DHT22;1693;49.602;11.046;2022-07-06T06:00:23;18.60;99.90
3360;DHT22;1693;49.602;11.046;2022-07-06T06:02:50;18.70;99.90
3360;DHT22;1693;49.602;11.046;2022-07-06T06:05:18;18.60;99.90
3360;DHT22;1693;49.602;11.046;2022-07-06T06:07:45;18.70;99.90
3360;DHT22;1693;49.602;11.046;2022-07-06T06:10:14;18.70;99.90
3360;DHT22;1693;49.602;11.046;2022-07-06T06:12:44;18.80;99.90
3360;DHT22;1693;49.602;11.046;2022-07-06T06:15:12;18.90;99.90
3360;DHT22;1693;49.602;11.046;2022-07-06T06:17:39;18.90;99.90
3360;DHT22;1693;49.602;11.046;2022-07-06T06:20:08;19.00;99.90
3360;DHT22;1693;49.602;11.046;2022-07-06T06:22:45;19.10;99.90
3360;DHT22;1693;49.602;11.046;2022-07-06T06:25:12;19.20;99.90
3360;DHT22;1693;49.602;11.046;2022-07-06T06:27:39;19.20;99.90
3360;DHT22;1693;49.602;11.046;2022-07-06T06:30:09;19.30;99.90
3360;DHT22;1693;49.602;11.046;2022-07-06T06:32:36;19.30;99.90
3360;DHT22;1693;49.602;11.046;2022-07-06T06:35:05;19.40;99.90
3360;DHT22;1693;49.602;11.046;2022-07-06T06:37:32;19.60;99.90
3360;DHT22;1693;49.602;11.046;2022-07-06T06:40:00;19.70;99.90
3360;DHT22;1693;49.602;11.046;2022-07-06T06:42:27;19.90;99.90
3360;DHT22;1693;49.602;11.046;2022-07-06T06:44:54;20.00;99.90
3360;DHT22;1693;49.602;11.046;2022-07-06T06:47:23;19.90;99.90
3360;DHT22;1693;49.602;11.046;2022-07-06T06:49:50;20.20;99.90
3360;DHT22;1693;49.602;11.046;2022-07-06T06:52:17;20.60;99.90
3360;DHT22;1693;49.602;11.046;2022-07-06T06:54:44;20.70;99.90
3360;DHT22;1693;49.602;11.046;2022-07-06T06:57:11;20.80;99.90
3360;DHT22;1693;49.602;11.046;2022-07-06T06:59:38;20.90;99.90
3360;DHT22;1693;49.602;11.046;2022-07-06T07:02:07;21.00;99.90
3360;DHT22;1693;49.602;11.046;2022-07-06T07:04:36;21.10;99.90
3360;DHT22;1693;49.602;11.046;2022-07-06T07:07:04;21.00;99.90
3360;DHT22;1693;49.602;11.046;2022-07-06T07:09:34;21.10;99.90
3360;DHT22;1693;49.602;11.046;2022-07-06T07:12:01;21.30;99.90
3360;DHT22;1693;49.602;11.046;2022-07-06T07:14:28;21.40;99.90
3360;DHT22;1693;49.602;11.046;2022-07-06T07:16:55;21.40;99.90
3360;DHT22;1693;49.602;11.046;2022-07-06T07:19:22;21.70;99.90
3360;DHT22;1693;49.602;11.046;2022-07-06T07:21:51;21.60;99.90
3360;DHT22;1693;49.602;11.046;2022-07-06T07:24:18;21.60;99.90
3360;DHT22;1693;49.602;11.046;2022-07-06T07:26:45;21.50;99.90
3360;DHT22;1693;49.602;11.046;2022-07-06T07:29:12;21.50;99.90
3360;DHT22;1693;49.602;11.046;2022-07-06T07:31:39;21.40;99.90
3360;DHT22;1693;49.602;11.046;2022-07-06T07:34:06;21.40;99.90
3360;DHT22;1693;49.602;11.046;2022-07-06T07:36:33;21.40;99.90
3360;DHT22;1693;49.602;11.046;2022-07-06T07:39:03;21.40;98.40
3360;DHT22;1693;49.602;11.046;2022-07-06T07:41:31;21.20;98.80
3360;DHT22;1693;49.602;11.046;2022-07-06T07:43:58;20.90;98.50
3360;DHT22;1693;49.602;11.046;2022-07-06T07:46:25;20.80;99.50
3360;DHT22;1693;49.602;11.046;2022-07-06T07:48:52;20.80;99.90
3360;DHT22;1693;49.602;11.046;2022-07-06T07:51:20;20.60;99.90
3360;DHT22;1693;49.602;11.046;2022-07-06T07:53:47;21.00;99.90
3360;DHT22;1693;49.602;11.046;2022-07-06T07:56:16;21.00;99.30
3360;DHT22;1693;49.602;11.046;2022-07-06T07:58:43;21.20;99.90
3360;DHT22;1693;49.602;11.046;2022-07-06T08:01:10;21.40;99.90
3360;DHT22;1693;49.602;11.046;2022-07-06T08:03:37;21.30;98.90
3360;DHT22;1693;49.602;11.046;2022-07-06T08:06:05;21.20;98.90
3360;DHT22;1693;49.602;11.046;2022-07-06T08:08:32;21.50;99.20
3360;DHT22;1693;49.602;11.046;2022-07-06T08:10:59;21.40;98.00
3360;DHT22;1693;49.602;11.046;2022-07-06T08:13:27;21.50;97.60
3360;DHT22;1693;49.602;11.046;2022-07-06T08:15:54;21.60;97.30
3360;DHT22;1693;49.602;11.046;2022-07-06T08:18:21;21.60;97.10
3360;DHT22;1693;49.602;11.046;2022-07-06T08:20:49;21.90;96.40
3360;DHT22;1693;49.602;11.046;2022-07-06T08:23:16;22.10;96.20
3360;DHT22;1693;49.602;11.046;2022-07-06T08:25:43;22.10;95.50
3360;DHT22;1693;49.602;11.046;2022-07-06T08:28:11;22.10;94.40
3360;DHT22;1693;49.602;11.046;2022-07-06T08:30:39;22.10;93.10
3360;DHT22;1693;49.602;11.046;2022-07-06T08:33:06;22.00;94.50
3360;DHT22;1693;49.602;11.046;2022-07-06T08:35:33;22.20;94.00
3360;DHT22;1693;49.602;11.046;2022-07-06T08:38:00;22.20;93.30
3360;DHT22;1693;49.602;11.046;2022-07-06T08:40:33;22.60;94.00
3360;DHT22;1693;49.602;11.046;2022-07-06T08:43:00;23.00;93.80
3360;DHT22;1693;49.602;11.046;2022-07-06T08:45:28;22.80;93.00
3360;DHT22;1693;49.602;11.046;2022-07-06T08:47:59;22.90;93.50
3360;DHT22;1693;49.602;11.046;2022-07-06T08:50:30;22.90;93.90
3360;DHT22;1693;49.602;11.046;2022-07-06T08:52:57;23.00;94.00
3360;DHT22;1693;49.602;11.046;2022-07-06T08:55:25;23.00;93.60
3360;DHT22;1693;49.602;11.046;2022-07-06T08:57:54;22.80;91.80
3360;DHT22;1693;49.602;11.046;2022-07-06T09:00:22;22.40;92.10
3360;DHT22;1693;49.602;11.046;2022-07-06T09:02:49;22.40;92.20
3360;DHT22;1693;49.602;11.046;2022-07-06T09:05:19;22.60;93.40
3360;DHT22;1693;49.602;11.046;2022-07-06T09:07:49;22.70;93.40
3360;DHT22;1693;49.602;11.046;2022-07-06T09:10:17;22.90;93.30
3360;DHT22;1693;49.602;11.046;2022-07-06T09:12:45;23.00;93.20
3360;DHT22;1693;49.602;11.046;2022-07-06T09:15:12;23.20;91.90
3360;DHT22;1693;49.602;11.046;2022-07-06T09:17:40;23.10;91.60
3360;DHT22;1693;49.602;11.046;2022-07-06T09:20:09;23.40;90.80
3360;DHT22;1693;49.602;11.046;2022-07-06T09:22:38;23.50;91.70
3360;DHT22;1693;49.602;11.046;2022-07-06T09:25:08;23.50;90.20
3360;DHT22;1693;49.602;11.046;2022-07-06T09:27:37;23.50;86.50
3360;DHT22;1693;49.602;11.046;2022-07-06T09:30:06;23.30;88.30
3360;DHT22;1693;49.602;11.046;2022-07-06T09:32:39;23.30;86.80
3360;DHT22;1693;49.602;11.046;2022-07-06T09:35:06;23.30;87.70
3360;DHT22;1693;49.602;11.046;2022-07-06T09:37:33;23.30;87.40
3360;DHT22;1693;49.602;11.046;2022-07-06T09:40:15;23.40;86.00
3360;DHT22;1693;49.602;11.046;2022-07-06T09:42:42;23.50;85.20
3360;DHT22;1693;49.602;11.046;2022-07-06T09:45:09;23.50;84.20
3360;DHT22;1693;49.602;11.046;2022-07-06T09:47:36;23.60;86.10
3360;DHT22;1693;49.602;11.046;2022-07-06T09:50:06;23.80;83.60
3360;DHT22;1693;49.602;11.046;2022-07-06T09:52:34;23.50;84.10
3360;DHT22;1693;49.602;11.046;2022-07-06T09:55:06;23.50;86.50
3360;DHT22;1693;49.602;11.046;2022-07-06T09:57:52;23.70;84.40
3360;DHT22;1693;49.602;11.046;2022-07-06T10:00:20;23.30;84.40
3360;DHT22;1693;49.602;11.046;2022-07-06T10:02:49;23.40;85.20
3360;DHT22;1693;49.602;11.046;2022-07-06T10:05:17;23.50;85.60
3360;DHT22;1693;49.602;11.046;2022-07-06T10:07:45;23.70;86.00
3360;DHT22;1693;49.602;11.046;2022-07-06T10:10:15;24.00;85.10
3360;DHT22;1693;49.602;11.046;2022-07-06T10:12:44;24.20;81.30
3360;DHT22;1693;49.602;11.046;2022-07-06T10:15:16;24.30;81.80
3360;DHT22;1693;49.602;11.046;2022-07-06T10:17:45;24.30;81.00
3360;DHT22;1693;49.602;11.046;2022-07-06T10:20:13;24.30;81.40
3360;DHT22;1693;49.602;11.046;2022-07-06T10:22:41;24.50;83.30
3360;DHT22;1693;49.602;11.046;2022-07-06T10:25:15;24.40;82.30
3360;DHT22;1693;49.602;11.046;2022-07-06T10:27:42;24.50;82.70
3360;DHT22;1693;49.602;11.046;2022-07-06T10:30:10;24.80;82.30
3360;DHT22;1693;49.602;11.046;2022-07-06T10:32:39;25.00;84.20
3360;DHT22;1693;49.602;11.046;2022-07-06T10:35:08;25.20;79.20
3360;DHT22;1693;49.602;11.046;2022-07-06T10:37:36;25.50;79.30
3360;DHT22;1693;49.602;11.046;2022-07-06T10:40:04;25.50;76.90
3360;DHT22;1693;49.602;11.046;2022-07-06T10:42:56;25.40;76.90
3360;DHT22;1693;49.602;11.046;2022-07-06T10:45:50;25.40;77.00
3360;DHT22;1693;49.602;11.046;2022-07-06T10:48:19;25.20;76.30
3360;DHT22;1693;49.602;11.046;2022-07-06T10:50:50;25.70;80.40
3360;DHT22;1693;49.602;11.046;2022-07-06T10:53:21;26.00;77.60
3360;DHT22;1693;49.602;11.046;2022-07-06T10:55:50;26.30;76.00
3360;DHT22;1693;49.602;11.046;2022-07-06T10:58:37;25.70;73.90
3360;DHT22;1693;49.602;11.046;2022-07-06T11:01:06;25.50;78.90
3360;DHT22;1693;49.602;11.046;2022-07-06T11:03:35;25.40;78.90
3360;DHT22;1693;49.602;11.046;2022-07-06T11:06:07;25.60;76.00
3360;DHT22;1693;49.602;11.046;2022-07-06T11:08:46;25.90;75.90
3360;DHT22;1693;49.602;11.046;2022-07-06T11:11:15;25.90;70.70
3360;DHT22;1693;49.602;11.046;2022-07-06T11:13:56;25.70;72.60
3360;DHT22;1693;49.602;11.046;2022-07-06T11:16:27;25.80;73.00
3360;DHT22;1693;49.602;11.046;2022-07-06T11:19:06;26.00;72.80
3360;DHT22;1693;49.602;11.046;2022-07-06T11:21:40;26.30;71.70
3360;DHT22;1693;49.602;11.046;2022-07-06T11:24:09;26.70;68.30
3360;DHT22;1693;49.602;11.046;2022-07-06T11:26:37;26.80;66.00
3360;DHT22;1693;49.602;11.046;2022-07-06T11:29:08;27.00;66.20
3360;DHT22;1693;49.602;11.046;2022-07-06T11:31:37;27.10;72.90
3360;DHT22;1693;49.602;11.046;2022-07-06T11:34:05;27.60;72.30
3360;DHT22;1693;49.602;11.046;2022-07-06T11:36:33;27.90;69.00
3360;DHT22;1693;49.602;11.046;2022-07-06T11:39:00;27.60;68.90
3360;DHT22;1693;49.602;11.046;2022-07-06T11:41:27;27.00;73.00
3360;DHT22;1693;49.602;11.046;2022-07-06T11:43:55;26.60;69.10
3360;DHT22;1693;49.602;11.046;2022-07-06T11:46:27;26.50;69.30
3360;DHT22;1693;49.602;11.046;2022-07-06T11:48:55;27.20;68.00
3360;DHT22;1693;49.602;11.046;2022-07-06T11:51:23;28.40;65.50
3360;DHT22;1693;49.602;11.046;2022-07-06T11:53:52;29.50;63.60
3360;DHT22;1693;49.602;11.046;2022-07-06T11:56:20;29.20;61.30
3360;DHT22;1693;49.602;11.046;2022-07-06T11:58:51;28.10;62.80
3360;DHT22;1693;49.602;11.046;2022-07-06T12:01:19;27.70;60.60
3360;DHT22;1693;49.602;11.046;2022-07-06T12:04:04;27.00;63.70
3360;DHT22;1693;49.602;11.046;2022-07-06T12:06:33;26.70;61.20
3360;DHT22;1693;49.602;11.046;2022-07-06T12:09:01;28.60;60.90
3360;DHT22;1693;49.602;11.046;2022-07-06T12:11:32;30.40;56.70
3360;DHT22;1693;49.602;11.046;2022-07-06T12:14:12;31.90;55.50
3360;DHT22;1693;49.602;11.046;2022-07-06T12:16:40;32.40;52.50
3360;DHT22;1693;49.602;11.046;2022-07-06T12:19:09;30.50;50.40
3360;DHT22;1693;49.602;11.046;2022-07-06T12:21:43;28.80;53.10
3360;DHT22;1693;49.602;11.046;2022-07-06T12:24:16;27.80;55.30
3360;DHT22;1693;49.602;11.046;2022-07-06T12:26:43;26.80;56.80
3360;DHT22;1693;49.602;11.046;2022-07-06T12:29:12;26.30;58.60
3360;DHT22;1693;49.602;11.046;2022-07-06T12:31:42;26.80;57.20
3360;DHT22;1693;49.602;11.046;2022-07-06T12:34:15;28.20;55.70
3360;DHT22;1693;49.602;11.046;2022-07-06T12:36:44;27.60;55.20
3360;DHT22;1693;49.602;11.046;2022-07-06T12:39:12;27.50;56.50
3360;DHT22;1693;49.602;11.046;2022-07-06T12:41:45;27.70;56.40
3360;DHT22;1693;49.602;11.046;2022-07-06T12:44:13;28.80;54.90
3360;DHT22;1693;49.602;11.046;2022-07-06T12:46:41;29.90;54.80
3360;DHT22;1693;49.602;11.046;2022-07-06T12:49:15;31.90;54.20
3360;DHT22;1693;49.602;11.046;2022-07-06T12:51:54;32.10;50.20
3360;DHT22;1693;49.602;11.046;2022-07-06T12:54:22;32.00;48.30
3360;DHT22;1693;49.602;11.046;2022-07-06T12:57:20;31.60;49.30
3360;DHT22;1693;49.602;11.046;2022-07-06T12:59:56;33.70;48.30
3360;DHT22;1693;49.602;11.046;2022-07-06T13:02:29;34.10;48.40
3360;DHT22;1693;49.602;11.046;2022-07-06T13:04:59;32.50;46.30
3360;DHT22;1693;49.602;11.046;2022-07-06T13:07:26;32.80;47.70
3360;DHT22;1693;49.602;11.046;2022-07-06T13:09:54;32.80;46.60
3360;DHT22;1693;49.602;11.046;2022-07-06T13:12:22;31.20;47.70
3360;DHT22;1693;49.602;11.046;2022-07-06T13:14:49;30.40;50.60
3360;DHT22;1693;49.602;11.046;2022-07-06T13:17:17;30.80;48.80
3360;DHT22;1693;49.602;11.046;2022-07-06T13:19:44;32.10;48.50
3360;DHT22;1693;49.602;11.046;2022-07-06T13:22:13;32.10;46.60
3360;DHT22;1693;49.602;11.046;2022-07-06T13:24:40;31.80;45.90
3360;DHT22;1693;49.602;11.046;2022-07-06T13:27:08;31.20;46.40
3360;DHT22;1693;49.602;11.046;2022-07-06T13:29:35;31.30;47.30
3360;DHT22;1693;49.602;11.046;2022-07-06T13:32:03;32.90;47.10
3360;DHT22;1693;49.602;11.046;2022-07-06T13:34:30;33.10;45.90
3360;DHT22;1693;49.602;11.046;2022-07-06T13:36:57;33.00;46.10
3360;DHT22;1693;49.602;11.046;2022-07-06T13:39:28;33.20;45.50
3360;DHT22;1693;49.602;11.046;2022-07-06T13:41:57;33.00;44.70
3360;DHT22;1693;49.602;11.046;2022-07-06T13:44:24;32.90;44.10
3360;DHT22;1693;49.602;11.046;2022-07-06T13:46:52;32.50;44.00
3360;DHT22;1693;49.602;11.046;2022-07-06T13:49:19;31.90;43.90
3360;DHT22;1693;49.602;11.046;2022-07-06T13:51:46;31.30;45.00
3360;DHT22;1693;49.602;11.046;2022-07-06T13:54:13;32.30;47.10
3360;DHT22;1693;49.602;11.046;2022-07-06T13:56:42;33.70;44.90
3360;DHT22;1693;49.602;11.046;2022-07-06T13:59:10;33.50;43.80
3360;DHT22;1693;49.602;11.046;2022-07-06T14:01:37;32.90;43.50
3360;DHT22;1693;49.602;11.046;2022-07-06T14:04:04;33.10;44.70
3360;DHT22;1693;49.602;11.046;2022-07-06T14:06:32;34.70;44.10
3360;DHT22;1693;49.602;11.046;2022-07-06T14:09:00;35.30;44.70
3360;DHT22;1693;49.602;11.046;2022-07-06T14:11:27;35.20;42.30
3360;DHT22;1693;49.602;11.046;2022-07-06T14:13:56;34.80;41.60
3360;DHT22;1693;49.602;11.046;2022-07-06T14:16:23;35.00;41.30
3360;DHT22;1693;49.602;11.046;2022-07-06T14:18:51;35.10;41.30
3360;DHT22;1693;49.602;11.046;2022-07-06T14:21:17;35.00;41.00
3360;DHT22;1693;49.602;11.046;2022-07-06T14:23:45;33.60;40.50
3360;DHT22;1693;49.602;11.046;2022-07-06T14:28:42;31.20;40.70
3360;DHT22;1693;49.602;11.046;2022-07-06T14:31:10;30.80;43.50
3360;DHT22;1693;49.602;11.046;2022-07-06T14:33:39;31.20;45.70
3360;DHT22;1693;49.602;11.046;2022-07-06T14:36:07;31.80;45.60
3360;DHT22;1693;49.602;11.046;2022-07-06T14:38:34;33.30;42.70
3360;DHT22;1693;49.602;11.046;2022-07-06T14:41:01;34.30;42.40
3360;DHT22;1693;49.602;11.046;2022-07-06T14:43:28;33.70;42.20
3360;DHT22;1693;49.602;11.046;2022-07-06T14:45:55;34.20;44.00
3360;DHT22;1693;49.602;11.046;2022-07-06T14:48:23;35.70;41.90
3360;DHT22;1693;49.602;11.046;2022-07-06T14:50:51;35.60;40.90
3360;DHT22;1693;49.602;11.046;2022-07-06T14:53:18;35.40;40.50
3360;DHT22;1693;49.602;11.046;2022-07-06T14:55:46;37.00;39.80
3360;DHT22;1693;49.602;11.046;2022-07-06T14:58:13;36.80;37.00
3360;DHT22;1693;49.602;11.046;2022-07-06T15:00:43;36.10;38.00
3360;DHT22;1693;49.602;11.046;2022-07-06T15:03:10;35.60;38.60
3360;DHT22;1693;49.602;11.046;2022-07-06T15:05:40;35.60;38.10
3360;DHT22;1693;49.602;11.046;2022-07-06T15:08:11;36.20;38.00
3360;DHT22;1693;49.602;11.046;2022-07-06T15:10:40;36.20;36.30
3360;DHT22;1693;49.602;11.046;2022-07-06T15:13:07;36.20;36.00
3360;DHT22;1693;49.602;11.046;2022-07-06T15:15:35;35.80;35.70
3360;DHT22;1693;49.602;11.046;2022-07-06T15:18:04;35.50;35.60
3360;DHT22;1693;49.602;11.046;2022-07-06T15:20:31;35.70;35.50
3360;DHT22;1693;49.602;11.046;2022-07-06T15:23:00;35.50;34.40
3360;DHT22;1693;49.602;11.046;2022-07-06T15:25:27;35.00;35.10
3360;DHT22;1693;49.602;11.046;2022-07-06T15:27:55;35.20;35.80
3360;DHT22;1693;49.602;11.046;2022-07-06T15:32:50;34.60;35.90
3360;DHT22;1693;49.602;11.046;2022-07-06T15:35:17;35.30;37.10
3360;DHT22;1693;49.602;11.046;2022-07-06T15:37:44;35.20;36.80
3360;DHT22;1693;49.602;11.046;2022-07-06T15:40:12;35.30;37.40
3360;DHT22;1693;49.602;11.046;2022-07-06T15:42:42;36.30;36.60
3360;DHT22;1693;49.602;11.046;2022-07-06T15:45:09;36.60;36.90
3360;DHT22;1693;49.602;11.046;2022-07-06T15:47:36;36.40;36.10
3360;DHT22;1693;49.602;11.046;2022-07-06T15:50:05;34.80;37.10
3360;DHT22;1693;49.602;11.046;2022-07-06T15:52:33;34.60;37.10
3360;DHT22;1693;49.602;11.046;2022-07-06T15:55:00;33.80;37.60
3360;DHT22;1693;49.602;11.046;2022-07-06T15:57:29;34.10;37.50